MONTHLY CLIMATOLOGICAL SUMMARY for MAR. 2017

NAME: Alresford Weather   CITY:  STATE: 
ELEV: 0 LAT: 050:05:15 LONG: 0001:10:11

                            TEMPERATURE ( C), RAIN (mm), WIND SPEED (mph)

                                               HEAT     COOL           AVG
      MEAN                                     DEG      DEG            WIND                       DOM
DAY   TEMP    HIGH   TIME     LOW    TIME      DAYS     DAYS    RAIN   SPEED    HIGH    TIME      DIR
----------------------------------------------------------------------------------------------------------------------------------------------------------
01   -00.5   -00.5   00:00   -00.5   00:00     18.8     00.0   00.07   04.1     41.4    22:02     WSW
02   -00.5   -00.5   00:00   -00.5   00:00     18.8     00.0   00.01   07.7     38.0    01:39     WSW
03   -00.5   -00.5   00:00   -00.5   00:00     18.8     00.0   00.66   04.6     21.9    11:08     SSE
04   -00.5   -00.5   00:00   -00.5   00:00     18.8     00.0   00.04   04.2     21.9    14:45      SW
05   -00.5   -00.5   00:00   -00.5   00:00     18.8     00.0   00.47   07.8     31.1    20:49     WSW
06   -00.5   -00.5   00:00   -00.5   00:00     18.8     00.0   00.01   03.5     20.7    14:34      W 
07   -00.5   -00.5   00:00   -00.5   00:00     18.8     00.0   00.03   02.8     13.8    23:06      SW
08   -00.5   -00.5   00:00   -00.5   00:00     18.8     00.0   00.10   04.0     16.1    06:10      SW
09   -00.5   -00.5   00:00   -00.5   00:00     18.8     00.0   00.01   03.6     19.6    09:16     WSW
10   -00.5   -00.5   00:00   -00.5   00:00     18.8     00.0   00.00   02.6     16.1    12:57     SSE
11   -00.5   -00.5   00:00   -00.5   00:00     18.8     00.0   00.00   02.3     12.7    03:34      S 
12   -00.5   -00.5   00:00   -00.5   00:00     18.8     00.0   00.23   01.1     14.9    21:34      NW
13   -00.5   -00.5   00:00   -00.5   00:00     18.8     00.0   00.00   01.9     14.9    12:28     WNW
14   -00.5   -00.5   00:00   -00.5   00:00     18.8     00.0   00.00   03.6     19.6    14:48      W 
15   -00.5   -00.5   00:00   -00.5   00:00     18.8     00.0   00.00   00.4     06.9    16:33      SW
16   -00.5   -00.5   00:00   -00.5   00:00     18.8     00.0   00.00   02.4     17.3    18:38     WSW
17   -00.5   -00.5   00:00   -00.5   00:00     18.8     00.0   00.00   05.4     25.3    21:35     WSW
18   -00.5   -00.5   00:00   -00.5   00:00     18.8     00.0   00.02   08.0     25.3    05:31      W 
19   -00.5   -00.5   00:00   -00.5   00:00     18.8     00.0   00.01   07.8     25.3    13:00     WSW
20   -00.5   -00.5   00:00   -00.5   00:00     18.8     00.0   00.16   06.3     29.9    11:42      SW
21   -00.5   -00.5   00:00   -00.5   00:00     18.8     00.0   00.02   05.6     20.7    10:28     WSW
22   -00.5   -00.5   00:00   -00.5   00:00     18.8     00.0   00.32   05.8     32.2    05:51     SSE
23   -00.5   -00.5   00:00   -00.5   00:00     18.8     00.0   00.08   04.5     26.4    15:18      NE
24   -00.5   -00.5   00:00   -00.5   00:00     18.8     00.0   00.00   04.3     23.0    09:57     NNE
25   -00.5   -00.5   00:00   -00.5   00:00     18.8     00.0   00.00   04.2     21.9    16:05     NNE
26   -00.5   -00.5   00:00   -00.5   00:00     18.8     00.0   00.00   03.2     19.6    00:18      NE
27   -00.5   -00.5   00:00   -00.5   00:00     18.8     00.0   00.00   01.1     13.8    14:58      NE
28   -00.5   -00.5   00:00   -00.5   00:00     18.8     00.0   00.00   02.7     20.7    16:40      SW
29   -00.5   -00.5   00:00   -00.5   00:00     18.8     00.0   00.04   04.7     21.9    01:51      SW
30   -00.5   -00.5   00:00   -00.5   00:00     18.8     00.0   00.00   03.5     16.1    17:06     SSE
31   -00.5   -00.5   00:00   -00.5   00:00     18.8     00.0   00.02   03.9     26.4    14:45     SSW
----------------------------------------------------------------------------------------------------------------------------------------------------------
-0.5 (-0.5)  -00.5  day 31    -00.5  day 31   583.7    000.0   02.30   04.1     41.4   day 01      SW
Max <=   0: 31
Min <=   30: 31
Max Rain: 0.66 ON 3-03-17
Days of Rain: 18 (> .008in) 6 (> .08in) 0 (> 0.8in)